createdAt,value
2022-10-01T00:00:49.688Z,13.34
2022-10-01T00:02:56.952Z,13.36
2022-10-01T00:04:59.877Z,13.33
2022-10-01T00:07:04.707Z,13.36
2022-10-01T00:09:09.619Z,13.40
2022-10-01T00:11:22.312Z,13.41
2022-10-01T00:13:25.718Z,13.37
2022-10-01T00:15:29.460Z,13.38
2022-10-01T00:17:32.962Z,13.42
2022-10-01T00:19:36.133Z,13.45
2022-10-01T00:21:41.028Z,13.41
2022-10-01T00:23:44.607Z,13.37
2022-10-01T00:25:53.528Z,13.41
2022-10-01T00:27:57.954Z,13.38
2022-10-01T00:30:01.511Z,13.38
2022-10-01T00:32:04.648Z,13.30
2022-10-01T00:34:07.556Z,13.34
2022-10-01T00:36:19.503Z,13.30
2022-10-01T00:38:24.179Z,13.33
2022-10-01T00:40:29.068Z,13.35
2022-10-01T00:42:33.887Z,13.33
2022-10-01T00:44:38.077Z,13.35
2022-10-01T00:46:45.885Z,13.23
2022-10-01T00:48:53.711Z,13.26
2022-10-01T00:50:57.130Z,13.23
2022-10-01T00:53:02.689Z,13.20
2022-10-01T00:55:08.928Z,13.23
2022-10-01T00:57:15.272Z,13.25
2022-10-01T00:59:20.438Z,13.28
2022-10-01T01:01:25.321Z,13.23
2022-10-01T01:03:28.894Z,13.22
2022-10-01T01:05:32.174Z,13.20
2022-10-01T01:07:38.004Z,13.11
2022-10-01T01:09:45.419Z,13.19
2022-10-01T01:11:52.124Z,13.23
2022-10-01T01:13:59.225Z,13.15
2022-10-01T01:18:30.118Z,13.12
2022-10-01T01:20:52.424Z,13.14
2022-10-01T01:23:01.344Z,13.06
2022-10-01T01:25:09.868Z,12.93
2022-10-01T01:27:25.365Z,12.87
2022-10-01T01:29:33.872Z,12.77
2022-10-01T01:31:41.363Z,12.70
2022-10-01T01:33:46.246Z,12.57
2022-10-01T01:35:52.839Z,12.39
2022-10-01T01:37:58.457Z,12.30
2022-10-01T01:40:27.356Z,12.17
2022-10-01T01:42:34.376Z,11.95
2022-10-01T01:44:42.804Z,11.79
2022-10-01T01:46:46.816Z,11.75
2022-10-01T01:48:53.253Z,11.61
2022-10-01T01:50:59.954Z,11.59
2022-10-01T01:53:03.023Z,11.56
2022-10-01T01:55:08.654Z,11.43
2022-10-01T01:57:13.684Z,11.45
2022-10-01T01:59:18.636Z,11.41
2022-10-01T02:01:40.150Z,11.31
2022-10-01T02:03:43.168Z,11.27
2022-10-01T02:05:54.289Z,11.21
2022-10-01T02:08:15.829Z,11.20
2022-10-01T02:10:29.234Z,11.14
2022-10-01T02:12:44.120Z,11.10
2022-10-01T02:14:53.948Z,11.06
2022-10-01T02:17:03.602Z,11.07
2022-10-01T02:19:08.972Z,11.06
2022-10-01T02:21:27.322Z,11.02
2022-10-01T02:23:35.307Z,11.08
2022-10-01T02:25:41.844Z,11.02
2022-10-01T02:27:47.999Z,11.01
2022-10-01T02:29:51.418Z,11.08
2022-10-01T02:31:55.757Z,11.04
2022-10-01T02:34:01.242Z,11.10
2022-10-01T02:36:14.743Z,11.06
2022-10-01T02:38:19.010Z,11.08
2022-10-01T02:40:26.580Z,11.07
2022-10-01T02:42:30.868Z,11.04
2022-10-01T02:44:38.513Z,11.08
2022-10-01T02:46:47.036Z,11.07
2022-10-01T02:48:53.460Z,11.02
2022-10-01T02:51:02.664Z,11.11
2022-10-01T02:53:07.441Z,11.05
2022-10-01T02:55:12.102Z,11.11
2022-10-01T02:57:31.942Z,11.10
2022-10-01T02:59:34.844Z,11.05
2022-10-01T03:01:38.164Z,11.05
2022-10-01T03:03:43.032Z,11.02
2022-10-01T03:05:45.907Z,11.05
2022-10-01T03:07:50.248Z,11.01
2022-10-01T03:09:53.240Z,11.02
2022-10-01T03:11:57.551Z,11.03
2022-10-01T03:14:00.970Z,11.00
2022-10-01T03:16:03.890Z,11.02
2022-10-01T03:18:06.787Z,10.94
2022-10-01T03:20:10.717Z,10.96
2022-10-01T03:22:18.227Z,10.98
2022-10-01T03:24:24.812Z,10.92
2022-10-01T03:26:27.620Z,10.88
2022-10-01T03:28:30.710Z,10.88
2022-10-01T03:30:34.395Z,10.84
2022-10-01T03:32:37.286Z,10.86
2022-10-01T03:34:40.509Z,10.83
2022-10-01T03:36:43.410Z,10.79
2022-10-01T03:38:46.278Z,10.80
2022-10-01T03:40:50.639Z,10.83
2022-10-01T03:42:53.443Z,10.84
2022-10-01T03:44:57.671Z,10.86
2022-10-01T03:47:00.568Z,10.82
2022-10-01T03:49:03.732Z,10.80
2022-10-01T03:51:19.101Z,10.84
2022-10-01T03:53:23.025Z,10.81
2022-10-01T03:55:25.999Z,10.83
2022-10-01T03:57:30.229Z,10.88
2022-10-01T03:59:33.197Z,10.90
2022-10-01T04:01:36.527Z,10.91
2022-10-01T04:03:40.133Z,10.86
2022-10-01T04:05:43.473Z,10.88
2022-10-01T04:07:46.344Z,10.88
2022-10-01T04:09:51.008Z,10.84
2022-10-01T04:11:54.008Z,10.82
2022-10-01T04:13:58.893Z,10.88
2022-10-01T04:16:02.156Z,10.82
2022-10-01T04:18:06.039Z,10.84
2022-10-01T04:20:09.548Z,10.82
2022-10-01T04:22:12.430Z,10.88
2022-10-01T04:24:15.337Z,10.84
2022-10-01T04:26:21.096Z,10.89
2022-10-01T04:28:24.011Z,10.95
2022-10-01T04:30:30.227Z,10.94
2022-10-01T04:32:33.338Z,10.90
2022-10-01T04:34:54.473Z,10.94
2022-10-01T04:36:57.413Z,10.92
2022-10-01T04:39:02.625Z,10.93
2022-10-01T04:41:06.032Z,10.93
2022-10-01T04:43:09.586Z,10.95
2022-10-01T04:45:13.476Z,10.97
2022-10-01T04:47:17.685Z,11.03
2022-10-01T04:49:20.532Z,11.04
2022-10-01T04:51:23.349Z,11.12
2022-10-01T04:53:26.317Z,11.12
2022-10-01T04:55:29.207Z,11.15
2022-10-01T04:57:32.021Z,11.19
2022-10-01T04:59:34.910Z,11.20
2022-10-01T05:01:38.426Z,11.24
2022-10-01T05:03:43.032Z,11.26
2022-10-01T05:05:46.304Z,11.27
2022-10-01T05:07:49.608Z,11.26
2022-10-01T05:09:52.448Z,11.27
2022-10-01T05:11:55.271Z,11.28
2022-10-01T05:13:58.072Z,11.30
2022-10-01T05:16:02.254Z,11.34
2022-10-01T05:18:05.192Z,11.28
2022-10-01T05:20:16.804Z,11.32
2022-10-01T05:22:19.643Z,11.33
2022-10-01T05:24:22.631Z,11.41
2022-10-01T05:26:29.611Z,11.43
2022-10-01T05:28:32.973Z,11.47
2022-10-01T05:30:35.945Z,11.49
2022-10-01T05:32:39.137Z,11.56
2022-10-01T05:34:42.081Z,11.60
2022-10-01T05:36:46.273Z,11.62
2022-10-01T05:38:49.186Z,11.67
2022-10-01T05:40:52.056Z,11.70
2022-10-01T05:42:56.007Z,11.75
2022-10-01T05:48:34.604Z,11.82
2022-10-01T05:50:40.520Z,11.84
2022-10-01T05:52:50.746Z,11.88
2022-10-01T05:54:53.745Z,11.88
2022-10-01T05:56:56.592Z,11.85
2022-10-01T05:58:59.524Z,11.78
2022-10-01T06:01:05.293Z,11.84
2022-10-01T06:03:08.726Z,11.81
2022-10-01T06:05:11.668Z,11.79
2022-10-01T06:07:14.519Z,11.79
2022-10-01T06:09:18.894Z,11.80
2022-10-01T06:11:24.196Z,11.80
2022-10-01T06:13:27.115Z,11.77
2022-10-01T06:15:30.610Z,11.75
2022-10-01T06:17:34.205Z,11.77
2022-10-01T06:19:37.185Z,11.78
2022-10-01T06:21:39.986Z,11.80
2022-10-01T06:23:44.315Z,11.82
2022-10-01T06:25:48.567Z,11.72
2022-10-01T06:27:55.479Z,11.81
2022-10-01T06:29:58.532Z,11.78
2022-10-01T06:32:01.743Z,11.73
2022-10-01T06:34:06.523Z,11.77
2022-10-01T06:36:09.399Z,11.77
2022-10-01T06:38:12.630Z,11.79
2022-10-01T06:40:15.507Z,11.81
2022-10-01T06:42:19.887Z,11.83
2022-10-01T06:44:23.249Z,11.84
2022-10-01T06:46:29.067Z,11.81
2022-10-01T06:48:32.568Z,11.78
2022-10-01T06:50:39.632Z,11.74
2022-10-01T06:52:55.239Z,11.77
2022-10-01T06:55:00.247Z,11.77
2022-10-01T06:57:03.962Z,11.85
2022-10-01T06:59:09.569Z,11.89
2022-10-01T07:01:17.466Z,11.85
2022-10-01T07:03:26.632Z,11.86
2022-10-01T07:05:29.859Z,11.84
2022-10-01T07:07:33.737Z,11.90
2022-10-01T07:09:36.547Z,11.94
2022-10-01T07:11:43.083Z,11.90
2022-10-01T07:13:47.544Z,11.90
2022-10-01T07:15:57.215Z,11.95
2022-10-01T07:18:01.197Z,11.97
2022-10-01T07:20:04.519Z,12.01
2022-10-01T07:22:07.878Z,12.04
2022-10-01T07:24:14.573Z,12.06
2022-10-01T07:26:18.148Z,12.07
2022-10-01T07:28:25.952Z,12.15
2022-10-01T07:30:29.616Z,12.19
2022-10-01T07:32:35.440Z,12.17
2022-10-01T07:34:40.239Z,12.23
2022-10-01T07:36:47.740Z,12.31
2022-10-01T07:39:03.279Z,12.31
2022-10-01T07:41:09.356Z,12.32
2022-10-01T07:43:14.731Z,12.29
2022-10-01T07:45:18.945Z,12.23
2022-10-01T07:47:23.424Z,12.32
2022-10-01T07:49:28.311Z,12.30
2022-10-01T07:51:32.085Z,12.27
2022-10-01T07:53:35.212Z,12.34
2022-10-01T07:55:41.092Z,12.26
2022-10-01T07:57:43.942Z,12.27
2022-10-01T07:59:46.925Z,12.29
2022-10-01T08:01:51.920Z,12.34
2022-10-01T08:03:55.165Z,12.36
2022-10-01T08:05:58.816Z,12.32
2022-10-01T08:08:05.042Z,12.31
2022-10-01T08:10:08.736Z,12.36
2022-10-01T08:12:11.985Z,12.37
2022-10-01T08:14:15.480Z,12.39
2022-10-01T08:16:20.851Z,12.44
2022-10-01T08:18:24.900Z,12.49
2022-10-01T08:20:28.744Z,12.50
2022-10-01T08:22:42.577Z,12.50
2022-10-01T08:24:50.983Z,12.62
2022-10-01T08:26:56.137Z,12.72
2022-10-01T08:28:59.489Z,12.78
2022-10-01T08:31:10.029Z,12.82
2022-10-01T08:33:15.250Z,12.91
2022-10-01T08:35:19.473Z,12.96
2022-10-01T08:37:27.151Z,13.08
2022-10-01T08:39:35.069Z,13.13
2022-10-01T08:41:50.789Z,13.25
2022-10-01T08:43:54.935Z,13.30
2022-10-01T08:46:00.277Z,13.37
2022-10-01T08:48:07.014Z,13.55
2022-10-01T08:50:15.529Z,13.60
2022-10-01T08:52:23.363Z,13.64
2022-10-01T08:54:35.448Z,13.70
2022-10-01T08:56:45.289Z,13.68
2022-10-01T08:58:53.410Z,13.76
2022-10-01T09:00:57.997Z,13.79
2022-10-01T09:03:06.423Z,13.96
2022-10-01T09:05:20.660Z,14.35
2022-10-01T09:07:41.993Z,14.64
2022-10-01T09:09:53.331Z,14.82
2022-10-01T09:12:06.758Z,14.97
2022-10-01T09:14:24.967Z,15.01
2022-10-01T09:16:32.343Z,14.90
2022-10-01T09:18:47.086Z,14.94
2022-10-01T09:20:53.887Z,14.98
2022-10-01T09:23:06.327Z,14.98
2022-10-01T09:25:21.503Z,14.74
2022-10-01T09:27:27.882Z,14.85
2022-10-01T09:29:44.450Z,14.70
2022-10-01T09:31:48.605Z,14.75
2022-10-01T09:33:55.126Z,14.97
2022-10-01T09:36:05.621Z,15.06
2022-10-01T09:39:15.840Z,14.98
2022-10-01T09:41:20.276Z,14.85
2022-10-01T09:43:23.916Z,14.85
2022-10-01T09:45:35.621Z,15.05
2022-10-01T09:47:38.694Z,14.99
2022-10-01T09:49:43.963Z,14.93
2022-10-01T09:51:51.186Z,14.96
2022-10-01T09:54:03.256Z,15.02
2022-10-01T09:56:14.665Z,15.05
2022-10-01T09:58:22.251Z,15.06
2022-10-01T10:00:27.776Z,15.18
2022-10-01T10:02:35.827Z,15.14
2022-10-01T10:04:38.959Z,15.09
2022-10-01T10:06:42.037Z,15.02
2022-10-01T10:08:46.186Z,15.30
2022-10-01T10:10:52.374Z,15.25
2022-10-01T10:12:57.529Z,15.44
2022-10-01T10:15:09.378Z,15.53
2022-10-01T10:17:16.802Z,15.65
2022-10-01T10:19:25.789Z,15.67
2022-10-01T10:21:31.049Z,15.70
2022-10-01T10:23:36.528Z,15.70
2022-10-01T10:25:39.943Z,15.48
2022-10-01T10:27:55.020Z,15.40
2022-10-01T10:30:08.565Z,15.30
2022-10-01T10:32:16.850Z,15.30
2022-10-01T10:34:22.816Z,15.13
2022-10-01T10:36:29.994Z,15.14
2022-10-01T10:38:36.046Z,15.08
2022-10-01T10:40:43.498Z,15.19
2022-10-01T10:42:49.115Z,15.12
2022-10-01T10:44:54.680Z,15.05
2022-10-01T10:47:02.829Z,15.17
2022-10-01T10:49:12.735Z,15.29
2022-10-01T10:51:15.718Z,15.52
2022-10-01T10:53:22.944Z,15.68
2022-10-01T10:55:30.969Z,15.71
2022-10-01T10:57:36.625Z,15.68
2022-10-01T10:59:39.631Z,15.95
2022-10-01T11:01:44.239Z,15.83
2022-10-01T11:03:50.144Z,15.93
2022-10-01T11:05:56.438Z,16.18
2022-10-01T11:08:01.181Z,16.54
2022-10-01T11:10:16.438Z,16.74
2022-10-01T11:12:27.312Z,16.82
2022-10-01T11:14:45.606Z,17.02
2022-10-01T11:17:01.458Z,17.31
2022-10-01T11:19:19.132Z,17.45
2022-10-01T11:21:38.012Z,17.63
2022-10-01T11:23:56.254Z,17.92
2022-10-01T11:26:11.010Z,17.80
2022-10-01T11:28:25.643Z,17.82
2022-10-01T11:30:34.388Z,17.93
2022-10-01T11:32:39.729Z,17.74
2022-10-01T11:35:08.007Z,17.68
2022-10-01T11:37:23.738Z,18.19
2022-10-01T11:39:27.983Z,18.25
2022-10-01T11:41:34.667Z,18.04
2022-10-01T11:43:44.974Z,17.73
2022-10-01T11:45:55.057Z,17.91
2022-10-01T11:48:01.634Z,18.15
2022-10-01T11:50:14.107Z,18.00
2022-10-01T11:52:22.717Z,17.82
2022-10-01T11:54:27.407Z,18.03
2022-10-01T11:56:50.126Z,18.30
2022-10-01T11:58:57.416Z,18.81
2022-10-01T12:01:06.766Z,18.82
2022-10-01T12:03:16.232Z,18.68
2022-10-01T12:05:26.734Z,18.44
2022-10-01T12:07:38.439Z,18.90
2022-10-01T12:09:52.478Z,19.18
2022-10-01T12:12:01.241Z,19.30
2022-10-01T12:14:07.346Z,19.43
2022-10-01T12:16:18.910Z,20.02
2022-10-01T12:18:28.535Z,20.01
2022-10-01T12:20:36.343Z,19.78
2022-10-01T12:22:39.862Z,19.63
2022-10-01T12:24:44.680Z,19.32
2022-10-01T12:26:58.555Z,18.93
2022-10-01T12:29:09.794Z,18.76
2022-10-01T12:31:17.737Z,18.62
2022-10-01T12:33:43.973Z,17.85
2022-10-01T12:35:56.554Z,17.33
2022-10-01T12:38:08.690Z,16.94
2022-10-01T12:40:22.758Z,16.79
2022-10-01T12:42:46.720Z,16.53
2022-10-01T12:44:59.776Z,16.39
2022-10-01T12:47:15.690Z,16.22
2022-10-01T12:49:24.259Z,15.98
2022-10-01T12:51:42.092Z,16.15
2022-10-01T12:53:51.173Z,16.49
2022-10-01T12:56:05.451Z,16.93
2022-10-01T12:58:15.675Z,16.93
2022-10-01T13:00:21.246Z,17.04
2022-10-01T13:02:39.379Z,17.49
2022-10-01T13:04:58.717Z,17.86
2022-10-01T13:07:24.618Z,18.35
2022-10-01T13:09:36.799Z,18.58
2022-10-01T13:11:53.977Z,18.67
2022-10-01T13:13:58.184Z,18.54
2022-10-01T13:16:10.847Z,18.27
2022-10-01T13:18:22.322Z,17.81
2022-10-01T13:20:31.155Z,17.26
2022-10-01T13:22:43.237Z,17.27
2022-10-01T13:24:52.470Z,17.25
2022-10-01T13:26:59.402Z,16.86
2022-10-01T13:29:12.083Z,16.18
2022-10-01T13:31:19.265Z,15.40
2022-10-01T13:33:24.701Z,14.85
2022-10-01T13:35:34.601Z,14.19
2022-10-01T13:37:44.035Z,14.11
2022-10-01T13:39:48.774Z,14.13
2022-10-01T13:41:58.536Z,14.25
2022-10-01T13:44:13.953Z,14.26
2022-10-01T13:46:16.855Z,14.33
2022-10-01T13:48:23.534Z,14.45
2022-10-01T13:50:27.730Z,14.51
2022-10-01T13:52:31.589Z,14.62
2022-10-01T13:54:39.827Z,14.77
2022-10-01T13:56:42.735Z,14.88
2022-10-01T13:58:46.739Z,14.99
2022-10-01T14:00:50.130Z,15.10
2022-10-01T14:03:05.893Z,15.12
2022-10-01T14:05:23.914Z,15.09
2022-10-01T14:07:31.361Z,15.04
2022-10-01T14:09:37.321Z,15.07
2022-10-01T14:12:00.938Z,15.21
2022-10-01T14:14:29.626Z,15.27
2022-10-01T14:16:37.915Z,15.35
2022-10-01T14:18:42.880Z,15.74
2022-10-01T14:20:54.246Z,15.96
2022-10-01T14:23:07.537Z,16.21
2022-10-01T14:25:22.343Z,16.53
2022-10-01T14:27:30.741Z,16.77
2022-10-01T14:29:43.200Z,17.03
2022-10-01T14:31:56.129Z,17.03
2022-10-01T14:34:19.967Z,16.89
2022-10-01T14:36:29.528Z,16.84
2022-10-01T14:38:32.573Z,17.03
2022-10-01T14:40:42.186Z,17.14
2022-10-01T14:42:45.540Z,17.24
2022-10-01T14:44:48.608Z,17.15
2022-10-01T14:46:52.124Z,17.39
2022-10-01T14:48:59.107Z,17.56
2022-10-01T14:51:11.714Z,17.74
2022-10-01T14:53:17.865Z,17.80
2022-10-01T14:55:22.693Z,17.89
2022-10-01T14:57:31.006Z,17.93
2022-10-01T14:59:37.463Z,17.87
2022-10-01T15:01:40.346Z,18.03
2022-10-01T15:03:44.568Z,18.09
2022-10-01T15:05:48.986Z,17.90
2022-10-01T15:07:51.952Z,17.99
2022-10-01T15:09:55.206Z,17.84
2022-10-01T15:11:58.265Z,17.64
2022-10-01T15:14:05.774Z,17.41
2022-10-01T15:16:12.966Z,17.15
2022-10-01T15:18:17.189Z,17.03
2022-10-01T15:20:21.377Z,16.85
2022-10-01T15:22:26.429Z,16.66
2022-10-01T15:24:36.223Z,16.80
2022-10-01T15:26:39.164Z,16.67
2022-10-01T15:28:44.378Z,16.62
2022-10-01T15:30:48.605Z,16.53
2022-10-01T15:32:51.713Z,16.34
2022-10-01T15:34:55.919Z,16.34
2022-10-01T15:37:03.122Z,16.31
2022-10-01T15:39:26.684Z,16.16
2022-10-01T15:41:33.046Z,16.14
2022-10-01T15:43:37.349Z,16.05
2022-10-01T15:45:40.440Z,16.00
2022-10-01T15:47:51.652Z,15.95
2022-10-01T15:50:07.718Z,15.85
2022-10-01T15:52:34.083Z,15.85
2022-10-01T15:54:37.464Z,15.72
2022-10-01T15:56:42.191Z,15.74
2022-10-01T15:58:54.079Z,15.68
2022-10-01T16:01:01.315Z,15.65
2022-10-01T16:03:05.923Z,15.57
2022-10-01T16:05:09.801Z,15.53
2022-10-01T16:07:20.502Z,15.50
2022-10-01T16:09:26.846Z,15.42
2022-10-01T16:11:33.040Z,15.39
2022-10-01T16:13:39.627Z,15.36
2022-10-01T16:15:44.985Z,15.33
2022-10-01T16:17:55.564Z,15.33
2022-10-01T16:20:01.894Z,15.30
2022-10-01T16:22:16.297Z,15.26
2022-10-01T16:24:29.315Z,15.22
2022-10-01T16:26:38.786Z,15.19
2022-10-01T16:28:43.149Z,15.20
2022-10-01T16:30:51.661Z,15.16
2022-10-01T16:32:57.592Z,15.07
2022-10-01T16:35:23.108Z,15.07
2022-10-01T16:37:26.294Z,15.08
2022-10-01T16:39:31.788Z,15.02
2022-10-01T16:41:37.165Z,15.06
2022-10-01T16:43:40.114Z,15.00
2022-10-01T16:45:46.165Z,15.01
2022-10-01T16:47:49.553Z,14.96
2022-10-01T16:49:53.301Z,14.94
2022-10-01T16:51:57.901Z,14.90
2022-10-01T16:54:02.166Z,14.90
2022-10-01T16:56:10.267Z,14.89
2022-10-01T16:58:14.070Z,14.84
2022-10-01T17:00:19.264Z,14.80
2022-10-01T17:02:22.422Z,14.78
2022-10-01T17:04:29.283Z,14.76
2022-10-01T17:06:35.205Z,14.71
2022-10-01T17:08:39.821Z,14.67
2022-10-01T17:10:45.486Z,14.64
2022-10-01T17:12:48.747Z,14.59
2022-10-01T17:14:51.827Z,14.59
2022-10-01T17:16:55.162Z,14.44
2022-10-01T17:18:58.488Z,14.36
2022-10-01T17:21:07.374Z,14.37
2022-10-01T17:23:11.993Z,14.29
2022-10-01T17:25:18.538Z,14.22
2022-10-01T17:27:23.404Z,14.18
2022-10-01T17:29:27.617Z,14.13
2022-10-01T17:31:30.880Z,14.09
2022-10-01T17:33:35.056Z,14.07
2022-10-01T17:35:42.689Z,14.03
2022-10-01T17:37:45.729Z,14.00
2022-10-01T17:40:13.849Z,13.97
2022-10-01T17:42:19.933Z,13.90
2022-10-01T17:44:25.428Z,13.93
2022-10-01T17:46:31.082Z,13.92
2022-10-01T17:48:34.059Z,13.89
2022-10-01T17:50:43.788Z,13.86
2022-10-01T17:52:49.444Z,13.80
2022-10-01T17:54:52.990Z,13.73
2022-10-01T17:56:56.298Z,13.68
2022-10-01T17:59:01.050Z,13.61
2022-10-01T18:01:06.833Z,13.58
2022-10-01T18:03:10.565Z,13.54
2022-10-01T18:05:15.693Z,13.48
2022-10-01T18:07:19.332Z,13.43
2022-10-01T18:09:23.396Z,13.31
2022-10-01T18:11:27.619Z,13.33
2022-10-01T18:13:31.792Z,13.32
2022-10-01T18:15:36.640Z,13.26
2022-10-01T18:20:05.958Z,13.23
2022-10-01T18:22:14.365Z,13.18
2022-10-01T18:24:19.449Z,13.14
2022-10-01T18:26:24.558Z,13.10
2022-10-01T18:28:28.537Z,13.10
2022-10-01T18:30:31.414Z,13.07
2022-10-01T18:32:40.033Z,13.07
2022-10-01T18:34:47.807Z,13.06
2022-10-01T18:36:56.628Z,13.05
2022-10-01T18:39:08.382Z,13.02
2022-10-01T18:41:26.093Z,12.99
2022-10-01T18:43:30.772Z,12.97
2022-10-01T18:45:49.000Z,12.95
2022-10-01T18:48:07.350Z,12.88
2022-10-01T18:50:26.153Z,12.80
2022-10-01T18:52:36.708Z,12.79
2022-10-01T18:54:58.197Z,12.70
2022-10-01T18:57:06.459Z,12.58
2022-10-01T18:59:31.822Z,12.54
2022-10-01T19:01:41.860Z,12.54
2022-10-01T19:04:20.368Z,12.49
2022-10-01T19:06:45.810Z,12.48
2022-10-01T19:09:00.886Z,12.38
2022-10-01T19:11:09.288Z,12.42
2022-10-01T19:13:20.546Z,12.43
2022-10-01T19:15:31.333Z,12.45
2022-10-01T19:18:10.233Z,12.48
2022-10-01T19:20:26.469Z,12.45
2022-10-01T19:22:35.409Z,12.42
2022-10-01T19:24:51.174Z,12.44
2022-10-01T19:27:01.029Z,12.43
2022-10-01T19:29:17.325Z,12.46
2022-10-01T19:31:28.634Z,12.42
2022-10-01T19:33:35.178Z,12.47
2022-10-01T19:35:41.946Z,12.46
2022-10-01T19:37:48.572Z,12.50
2022-10-01T19:39:53.669Z,12.51
2022-10-01T19:41:59.007Z,12.54
2022-10-01T19:44:04.368Z,12.61
2022-10-01T19:46:12.992Z,12.64
2022-10-01T19:48:20.790Z,12.68
2022-10-01T19:50:29.318Z,12.72
2022-10-01T19:52:39.159Z,12.72
2022-10-01T19:54:49.272Z,12.75
2022-10-01T19:56:55.189Z,12.78
2022-10-01T19:58:59.990Z,12.75
2022-10-01T20:01:07.069Z,12.75
2022-10-01T20:03:14.234Z,12.79
2022-10-01T20:05:27.811Z,12.78
2022-10-01T20:07:42.026Z,12.81
2022-10-01T20:09:47.253Z,12.79
2022-10-01T20:11:56.730Z,12.78
2022-10-01T20:14:10.643Z,12.81
2022-10-01T20:16:19.997Z,12.78
2022-10-01T20:18:30.311Z,12.75
2022-10-01T20:20:37.220Z,12.77
2022-10-01T20:22:50.470Z,12.74
2022-10-01T20:25:00.555Z,12.73
2022-10-01T20:27:16.079Z,12.76
2022-10-01T20:29:34.815Z,12.76
2022-10-01T20:31:41.999Z,12.76
2022-10-01T20:33:50.820Z,12.75
2022-10-01T20:36:01.366Z,12.73
2022-10-01T20:38:21.218Z,12.73
2022-10-01T20:40:28.444Z,12.72
2022-10-01T20:42:35.484Z,12.71
2022-10-01T20:44:40.297Z,12.71
2022-10-01T20:46:45.303Z,12.66
2022-10-01T20:48:52.150Z,12.69
2022-10-01T20:51:01.162Z,12.67
2022-10-01T20:53:14.621Z,12.70
2022-10-01T20:55:26.671Z,12.70
2022-10-01T20:57:35.796Z,12.71
2022-10-01T20:59:42.168Z,12.67
2022-10-01T21:01:55.826Z,12.65
2022-10-01T21:04:03.492Z,12.73
2022-10-01T21:06:15.732Z,12.78
2022-10-01T21:08:35.223Z,12.80
2022-10-01T21:10:43.203Z,12.81
2022-10-01T21:12:54.848Z,12.82
2022-10-01T21:14:58.585Z,12.83
2022-10-01T21:17:21.741Z,12.84
2022-10-01T21:19:47.054Z,12.81
2022-10-01T21:21:55.446Z,12.83
2022-10-01T21:24:13.513Z,12.84
2022-10-01T21:26:24.626Z,12.83
2022-10-01T21:28:44.741Z,12.85
2022-10-01T21:30:57.070Z,12.83
2022-10-01T21:33:08.606Z,12.87
2022-10-01T21:35:19.129Z,12.87
2022-10-01T21:37:29.100Z,12.88
2022-10-01T21:39:41.961Z,12.87
2022-10-01T21:41:57.159Z,12.85
2022-10-01T21:44:13.337Z,12.84
2022-10-01T21:46:21.941Z,12.84
2022-10-01T21:48:34.312Z,12.86
2022-10-01T21:50:53.362Z,12.87
2022-10-01T21:53:14.990Z,12.83
2022-10-01T21:55:44.079Z,12.84
2022-10-01T21:58:05.651Z,12.86
2022-10-01T22:00:21.435Z,12.89
2022-10-01T22:02:34.732Z,12.92
2022-10-01T22:04:42.586Z,12.97
2022-10-01T22:06:51.711Z,12.98
2022-10-01T22:09:02.814Z,13.06
2022-10-01T22:11:16.264Z,13.06
2022-10-01T22:13:22.535Z,13.12
2022-10-01T22:15:30.034Z,13.11
2022-10-01T22:17:40.011Z,13.13
2022-10-01T22:19:48.667Z,13.17
2022-10-01T22:21:55.474Z,13.17
2022-10-01T22:24:04.714Z,13.17
2022-10-01T22:26:18.997Z,13.19
2022-10-01T22:28:26.743Z,13.18
2022-10-01T22:30:33.548Z,13.21
2022-10-01T22:32:44.303Z,13.20
2022-10-01T22:34:50.963Z,13.20
2022-10-01T22:36:59.267Z,13.20
2022-10-01T22:39:06.923Z,13.19
2022-10-01T22:41:17.041Z,13.17
2022-10-01T22:43:20.478Z,13.18
2022-10-01T22:45:31.188Z,13.18
2022-10-01T22:47:51.375Z,13.23
2022-10-01T22:50:05.177Z,13.18
2022-10-01T22:52:19.691Z,13.15
2022-10-01T22:54:32.625Z,13.15
2022-10-01T22:56:44.609Z,13.20
2022-10-01T22:58:57.715Z,13.16
2022-10-01T23:01:13.342Z,13.16
2022-10-01T23:03:20.725Z,13.13
2022-10-01T23:05:39.519Z,13.13
2022-10-01T23:07:48.411Z,13.14
2022-10-01T23:09:56.793Z,13.14
2022-10-01T23:12:10.971Z,13.09
2022-10-01T23:14:27.084Z,13.08
2022-10-01T23:16:37.728Z,13.10
2022-10-01T23:18:47.272Z,13.07
2022-10-01T23:21:01.411Z,13.08
2022-10-01T23:23:26.206Z,13.09
2022-10-01T23:25:45.266Z,13.07
2022-10-01T23:28:02.691Z,13.09
2022-10-01T23:30:11.652Z,13.10
2022-10-01T23:32:28.843Z,13.11
2022-10-01T23:34:40.672Z,13.11
2022-10-01T23:36:48.861Z,13.05
2022-10-01T23:39:18.360Z,13.11
2022-10-01T23:41:27.111Z,13.10
2022-10-01T23:43:36.422Z,13.05
2022-10-01T23:45:44.491Z,13.10
2022-10-01T23:47:52.584Z,13.07
2022-10-01T23:49:57.884Z,13.10
2022-10-01T23:52:05.323Z,13.09
2022-10-01T23:54:14.271Z,13.13
2022-10-01T23:56:38.122Z,13.15
2022-10-01T23:58:49.595Z,13.16
